createdAt,value
2018-09-02T00:00:37.348Z,99.90
2018-09-02T00:03:11.415Z,99.90
2018-09-02T00:05:44.202Z,99.90
2018-09-02T00:08:19.372Z,99.90
2018-09-02T00:10:56.240Z,99.90
2018-09-02T00:13:30.413Z,99.90
2018-09-02T00:16:05.261Z,99.90
2018-09-02T00:18:40.491Z,99.90
2018-09-02T00:21:14.241Z,99.90
2018-09-02T00:23:49.048Z,99.90
2018-09-02T00:26:26.101Z,99.90
2018-09-02T00:29:00.755Z,99.90
2018-09-02T00:31:34.171Z,99.90
2018-09-02T00:36:53.379Z,99.90
2018-09-02T00:39:26.479Z,99.90
2018-09-02T00:42:00.017Z,99.90
2018-09-02T00:44:33.650Z,99.90
2018-09-02T00:47:07.067Z,99.90
2018-09-02T00:49:40.353Z,99.90
2018-09-02T00:52:13.832Z,99.90
2018-09-02T00:54:48.321Z,99.90
2018-09-02T00:57:22.955Z,99.90
2018-09-02T01:00:01.972Z,99.90
2018-09-02T01:02:35.940Z,99.90
2018-09-02T01:05:09.744Z,99.90
2018-09-02T01:07:43.125Z,99.90
2018-09-02T01:10:15.847Z,99.90
2018-09-02T01:12:48.656Z,99.90
2018-09-02T01:15:22.979Z,99.90
2018-09-02T01:17:56.232Z,99.90
2018-09-02T01:20:28.868Z,99.90
2018-09-02T01:23:03.008Z,99.90
2018-09-02T01:25:36.351Z,99.90
2018-09-02T01:28:09.621Z,99.90
2018-09-02T01:30:43.189Z,99.90
2018-09-02T01:33:18.134Z,99.90
2018-09-02T01:35:51.916Z,99.90
2018-09-02T01:38:24.380Z,99.90
2018-09-02T01:40:57.425Z,99.90
2018-09-02T01:43:32.351Z,99.90
2018-09-02T01:46:06.234Z,99.90
2018-09-02T01:48:39.010Z,99.90
2018-09-02T01:51:12.227Z,99.90
2018-09-02T01:53:44.913Z,99.90
2018-09-02T01:56:21.276Z,99.90
2018-09-02T01:58:54.627Z,99.90
2018-09-02T02:01:27.986Z,99.90
2018-09-02T02:04:01.988Z,99.90
2018-09-02T02:06:36.483Z,99.90
2018-09-02T02:09:10.200Z,99.90
2018-09-02T02:11:43.036Z,99.90
2018-09-02T02:14:17.219Z,99.90
2018-09-02T02:16:49.851Z,99.90
2018-09-02T02:19:22.928Z,99.90
2018-09-02T02:21:56.963Z,99.90
2018-09-02T02:24:30.252Z,99.90
2018-09-02T02:27:03.430Z,99.90
2018-09-02T02:29:36.591Z,99.90
2018-09-02T02:32:11.552Z,99.90
2018-09-02T02:34:44.036Z,99.90
2018-09-02T02:37:18.155Z,99.90
2018-09-02T02:39:51.333Z,99.90
2018-09-02T02:42:24.038Z,99.90
2018-09-02T02:44:57.055Z,99.90
2018-09-02T02:47:29.900Z,99.90
2018-09-02T02:50:03.073Z,99.90
2018-09-02T02:52:41.928Z,99.90
2018-09-02T02:55:14.373Z,99.90
2018-09-02T02:57:47.976Z,99.90
2018-09-02T03:00:21.045Z,99.90
2018-09-02T03:02:53.799Z,99.90
2018-09-02T03:05:26.263Z,99.90
2018-09-02T03:07:58.716Z,99.90
2018-09-02T03:10:31.196Z,99.90
2018-09-02T03:13:03.637Z,99.90
2018-09-02T03:15:36.117Z,99.90
2018-09-02T03:18:12.219Z,99.90
2018-09-02T03:20:44.800Z,99.90
2018-09-02T03:23:17.485Z,99.90
2018-09-02T03:25:50.329Z,99.90
2018-09-02T03:28:22.962Z,99.90
2018-09-02T03:30:56.374Z,99.90
2018-09-02T03:33:28.822Z,99.90
2018-09-02T03:36:01.538Z,99.90
2018-09-02T03:38:34.129Z,99.90
2018-09-02T03:41:07.122Z,99.90
2018-09-02T03:43:39.810Z,99.90
2018-09-02T03:46:12.643Z,99.90
2018-09-02T03:48:45.539Z,99.90
2018-09-02T03:51:18.728Z,99.90
2018-09-02T03:53:51.151Z,99.90
2018-09-02T03:56:23.790Z,99.90
2018-09-02T03:58:56.398Z,99.90
2018-09-02T04:01:29.054Z,99.90
2018-09-02T04:04:02.250Z,99.90
2018-09-02T04:06:35.281Z,99.90
2018-09-02T04:09:09.358Z,99.90
2018-09-02T04:11:42.265Z,99.90
2018-09-02T04:14:18.264Z,99.90
2018-09-02T04:16:54.289Z,99.90
2018-09-02T04:19:27.823Z,99.90
2018-09-02T04:22:00.191Z,99.90
2018-09-02T04:24:32.752Z,99.90
2018-09-02T04:27:05.406Z,99.90
2018-09-02T04:29:38.823Z,99.90
2018-09-02T04:32:11.682Z,99.90
2018-09-02T04:34:44.434Z,99.90
2018-09-02T04:37:17.133Z,99.90
2018-09-02T04:39:50.679Z,99.90
2018-09-02T04:42:23.065Z,99.90
2018-09-02T04:44:55.961Z,99.90
2018-09-02T04:47:28.609Z,99.90
2018-09-02T04:50:12.619Z,99.90
2018-09-02T04:52:44.993Z,99.90
2018-09-02T04:55:17.399Z,99.90
2018-09-02T04:57:49.776Z,99.90
2018-09-02T05:00:22.615Z,99.90
2018-09-02T05:02:54.941Z,99.90
2018-09-02T05:05:27.824Z,99.90
2018-09-02T05:08:00.218Z,99.90
2018-09-02T05:10:32.828Z,99.90
2018-09-02T05:13:05.277Z,99.90
2018-09-02T05:15:37.929Z,99.90
2018-09-02T05:18:10.619Z,99.90
2018-09-02T05:20:43.781Z,99.90
2018-09-02T05:23:16.744Z,99.90
2018-09-02T05:25:49.390Z,99.90
2018-09-02T05:28:22.438Z,99.90
2018-09-02T05:30:56.177Z,99.90
2018-09-02T05:33:28.874Z,99.90
2018-09-02T05:36:01.609Z,99.90
2018-09-02T05:38:38.938Z,99.90
2018-09-02T05:41:12.646Z,99.90
2018-09-02T05:43:46.512Z,99.90
2018-09-02T05:46:19.232Z,99.90
2018-09-02T05:48:51.744Z,99.90
2018-09-02T05:51:24.566Z,99.90
2018-09-02T05:53:57.024Z,99.90
2018-09-02T05:56:29.883Z,99.90
2018-09-02T05:59:02.485Z,99.90
2018-09-02T06:01:35.227Z,99.90
2018-09-02T06:04:07.733Z,99.90
2018-09-02T06:06:40.726Z,99.90
2018-09-02T06:09:13.209Z,99.90
2018-09-02T06:11:45.694Z,99.90
2018-09-02T06:14:18.206Z,99.90
2018-09-02T06:16:51.313Z,99.90
2018-09-02T06:19:24.008Z,99.90
2018-09-02T06:21:56.815Z,99.90
2018-09-02T06:24:29.603Z,99.90
2018-09-02T06:27:02.334Z,99.90
2018-09-02T06:29:35.094Z,99.90
2018-09-02T06:32:07.797Z,99.90
2018-09-02T06:34:45.621Z,99.90
2018-09-02T06:37:19.042Z,99.90
2018-09-02T06:39:54.062Z,99.90
2018-09-02T06:42:28.153Z,99.90
2018-09-02T06:45:03.114Z,99.90
2018-09-02T06:47:36.068Z,99.90
2018-09-02T06:50:08.797Z,99.90
2018-09-02T06:52:41.395Z,99.90
2018-09-02T06:55:14.832Z,99.90
2018-09-02T06:57:48.423Z,99.90
2018-09-02T07:00:21.363Z,99.90
2018-09-02T07:02:54.018Z,99.90
2018-09-02T07:05:26.863Z,99.90
2018-09-02T07:08:00.082Z,99.90
2018-09-02T07:10:32.997Z,99.90
2018-09-02T07:13:07.047Z,99.90
2018-09-02T07:15:40.119Z,99.90
2018-09-02T07:18:15.561Z,99.90
2018-09-02T07:20:50.537Z,99.90
2018-09-02T07:23:23.171Z,99.90
2018-09-02T07:26:00.305Z,99.90
2018-09-02T07:28:33.788Z,99.90
2018-09-02T07:31:09.707Z,99.90
2018-09-02T07:33:43.591Z,99.90
2018-09-02T07:36:16.846Z,99.90
2018-09-02T07:38:54.566Z,99.90
2018-09-02T07:41:27.937Z,99.90
2018-09-02T07:44:03.695Z,99.90
2018-09-02T07:46:37.656Z,99.90
2018-09-02T07:49:10.660Z,99.90
2018-09-02T07:51:45.492Z,99.90
2018-09-02T07:54:20.576Z,99.90
2018-09-02T07:56:54.755Z,99.90
2018-09-02T07:59:31.464Z,99.90
2018-09-02T08:02:04.635Z,99.90
2018-09-02T08:04:37.884Z,99.90
2018-09-02T08:07:11.208Z,99.90
2018-09-02T08:09:44.098Z,99.90
2018-09-02T08:12:16.797Z,99.90
2018-09-02T08:14:49.952Z,99.90
2018-09-02T08:17:22.457Z,99.90
2018-09-02T08:19:55.689Z,99.90
2018-09-02T08:22:28.823Z,99.90
2018-09-02T08:25:01.709Z,99.90
2018-09-02T08:30:07.342Z,99.90
2018-09-02T08:32:39.966Z,99.90
2018-09-02T08:35:12.597Z,99.90
2018-09-02T08:37:45.224Z,99.90
2018-09-02T08:40:18.071Z,99.90
2018-09-02T08:42:50.903Z,99.90
2018-09-02T08:45:23.583Z,99.90
2018-09-02T08:47:56.048Z,99.90
2018-09-02T08:50:28.599Z,99.90
2018-09-02T08:53:01.150Z,99.90
2018-09-02T08:55:33.790Z,99.90
2018-09-02T08:58:06.617Z,99.90
2018-09-02T09:00:39.386Z,99.90
2018-09-02T09:03:12.107Z,99.90
2018-09-02T09:05:45.922Z,99.90
2018-09-02T09:08:18.896Z,99.90
2018-09-02T09:10:52.179Z,99.90
2018-09-02T09:13:24.895Z,99.90
2018-09-02T09:15:57.387Z,99.90
2018-09-02T09:18:30.140Z,99.90
2018-09-02T09:21:02.766Z,99.90
2018-09-02T09:23:35.488Z,99.90
2018-09-02T09:26:08.050Z,99.90
2018-09-02T09:28:40.511Z,99.90
2018-09-02T09:31:13.119Z,99.90
2018-09-02T09:33:45.743Z,99.90
2018-09-02T09:36:18.448Z,99.90
2018-09-02T09:38:50.979Z,99.90
2018-09-02T09:41:23.444Z,99.90
2018-09-02T09:43:55.958Z,99.90
2018-09-02T09:46:28.798Z,99.90
2018-09-02T09:49:01.578Z,99.90
2018-09-02T09:51:34.450Z,99.90
2018-09-02T09:54:06.852Z,99.90
2018-09-02T09:56:39.460Z,99.90
2018-09-02T09:59:12.375Z,99.90
2018-09-02T10:04:17.774Z,99.90
2018-09-02T10:06:50.287Z,99.90
2018-09-02T10:09:23.322Z,99.90
2018-09-02T10:11:56.019Z,99.90
2018-09-02T10:14:29.037Z,99.90
2018-09-02T10:17:01.783Z,99.90
2018-09-02T10:19:34.604Z,99.90
2018-09-02T10:22:07.471Z,99.90
2018-09-02T10:24:40.021Z,99.90
2018-09-02T10:27:12.765Z,99.90
2018-09-02T10:29:45.750Z,99.90
2018-09-02T10:32:18.229Z,99.90
2018-09-02T10:34:50.712Z,99.90
2018-09-02T10:37:23.213Z,99.90
2018-09-02T10:39:55.819Z,99.90
2018-09-02T10:42:28.421Z,99.90
2018-09-02T10:45:01.090Z,99.90
2018-09-02T10:47:35.437Z,99.90
2018-09-02T10:50:10.220Z,99.90
2018-09-02T10:52:42.857Z,99.90
2018-09-02T10:55:15.517Z,99.90
2018-09-02T10:57:48.060Z,99.90
2018-09-02T11:00:20.546Z,99.90
2018-09-02T11:02:52.952Z,99.90
2018-09-02T11:05:25.518Z,99.90
2018-09-02T11:07:58.150Z,99.90
2018-09-02T11:10:30.705Z,99.90
2018-09-02T11:13:03.417Z,99.90
2018-09-02T11:15:36.680Z,99.90
2018-09-02T11:20:42.218Z,99.90
2018-09-02T11:23:14.886Z,99.90
2018-09-02T11:25:47.331Z,99.90
2018-09-02T11:28:20.102Z,99.90
2018-09-02T11:30:52.570Z,99.90
2018-09-02T11:35:57.642Z,99.90
2018-09-02T11:38:30.239Z,99.90
2018-09-02T11:41:02.772Z,99.90
2018-09-02T11:46:07.719Z,99.90
2018-09-02T11:51:12.754Z,99.90
2018-09-02T11:53:45.681Z,99.90
2018-09-02T11:56:18.370Z,99.90
2018-09-02T11:58:50.994Z,99.90
2018-09-02T12:01:23.677Z,99.90
2018-09-02T12:03:56.568Z,99.90
2018-09-02T12:06:29.179Z,99.80
2018-09-02T12:09:02.071Z,99.50
2018-09-02T12:11:34.655Z,99.00
2018-09-02T12:14:07.167Z,98.30
2018-09-02T12:16:39.768Z,98.40
2018-09-02T12:19:12.607Z,98.40
2018-09-02T12:21:45.372Z,98.20
2018-09-02T12:24:18.381Z,97.90
2018-09-02T12:26:54.970Z,97.80
2018-09-02T12:29:27.523Z,97.80
2018-09-02T12:32:00.155Z,97.60
2018-09-02T12:34:33.031Z,97.60
2018-09-02T12:37:08.838Z,97.20
2018-09-02T12:39:41.602Z,97.40
2018-09-02T12:42:18.373Z,97.40
2018-09-02T12:44:51.164Z,97.30
2018-09-02T12:47:27.205Z,97.40
2018-09-02T12:50:00.481Z,97.70
2018-09-02T12:52:33.170Z,97.40
2018-09-02T12:55:05.792Z,97.50
2018-09-02T12:57:38.473Z,97.40
2018-09-02T13:00:11.043Z,96.90
2018-09-02T13:02:43.450Z,96.70
2018-09-02T13:05:16.508Z,96.30
2018-09-02T13:07:52.856Z,96.40
2018-09-02T13:10:28.186Z,96.30
2018-09-02T13:13:01.771Z,96.20
2018-09-02T13:15:36.925Z,96.30
2018-09-02T13:18:10.042Z,96.30
2018-09-02T13:20:42.805Z,95.80
2018-09-02T13:23:16.186Z,95.90
2018-09-02T13:25:49.481Z,95.60
2018-09-02T13:28:22.509Z,95.50
2018-09-02T13:30:55.224Z,95.80
2018-09-02T13:33:28.722Z,96.30
2018-09-02T13:36:02.377Z,95.90
2018-09-02T13:38:36.263Z,96.00
2018-09-02T13:41:09.343Z,96.10
2018-09-02T13:43:41.881Z,96.10
2018-09-02T13:46:15.440Z,96.10
2018-09-02T13:48:53.301Z,96.00
2018-09-02T13:51:29.361Z,96.00
2018-09-02T13:54:06.059Z,96.00
2018-09-02T13:56:39.644Z,95.80
2018-09-02T13:59:16.352Z,96.50
2018-09-02T14:01:51.999Z,96.70
2018-09-02T14:04:24.974Z,96.30
2018-09-02T14:06:58.790Z,96.40
2018-09-02T14:09:32.907Z,96.60
2018-09-02T14:12:07.518Z,96.90
2018-09-02T14:14:41.659Z,96.50
2018-09-02T14:17:18.212Z,96.60
2018-09-02T14:19:50.952Z,96.70
2018-09-02T14:22:23.663Z,96.40
2018-09-02T14:27:31.513Z,95.80
2018-09-02T14:30:04.243Z,95.80
2018-09-02T14:32:37.557Z,95.80
2018-09-02T14:35:12.878Z,95.90
2018-09-02T14:37:45.779Z,96.10
2018-09-02T14:40:21.313Z,95.60
2018-09-02T14:42:54.566Z,95.60
2018-09-02T14:45:27.685Z,95.80
2018-09-02T14:48:01.262Z,95.60
2018-09-02T14:50:35.222Z,95.70
2018-09-02T14:53:09.630Z,95.60
2018-09-02T14:58:28.307Z,95.60
2018-09-02T15:01:04.822Z,95.70
2018-09-02T15:03:40.906Z,95.70
2018-09-02T15:06:14.611Z,95.80
2018-09-02T15:08:48.841Z,95.80
2018-09-02T15:11:24.521Z,95.80
2018-09-02T15:13:57.454Z,95.80
2018-09-02T15:16:30.585Z,95.80
2018-09-02T15:19:04.536Z,95.70
2018-09-02T15:21:38.444Z,95.60
2018-09-02T15:24:11.604Z,95.70
2018-09-02T15:26:44.982Z,95.70
2018-09-02T15:29:18.420Z,95.70
2018-09-02T15:31:56.093Z,95.80
2018-09-02T15:34:30.783Z,95.90
2018-09-02T15:37:03.742Z,95.90
2018-09-02T15:39:36.787Z,95.70
2018-09-02T15:42:10.148Z,96.30
2018-09-02T15:44:42.769Z,96.00
2018-09-02T15:47:15.610Z,96.50
2018-09-02T15:49:48.611Z,96.20
2018-09-02T15:52:21.759Z,96.10
2018-09-02T15:54:55.392Z,96.10
2018-09-02T15:57:33.796Z,96.10
2018-09-02T16:00:07.972Z,96.10
2018-09-02T16:02:42.479Z,96.20
2018-09-02T16:05:18.317Z,96.10
2018-09-02T16:07:51.203Z,96.20
2018-09-02T16:10:24.433Z,96.20
2018-09-02T16:12:59.127Z,96.20
2018-09-02T16:15:36.699Z,96.20
2018-09-02T16:18:09.940Z,96.10
2018-09-02T16:20:43.769Z,96.10
2018-09-02T16:23:17.305Z,96.10
2018-09-02T16:25:50.798Z,96.10
2018-09-02T16:28:23.236Z,96.20
2018-09-02T16:30:55.679Z,96.20
2018-09-02T16:33:28.207Z,96.20
2018-09-02T16:36:00.823Z,96.10
2018-09-02T16:38:33.248Z,96.30
2018-09-02T16:41:06.125Z,96.30
2018-09-02T16:43:38.790Z,96.30
2018-09-02T16:46:11.461Z,96.30
2018-09-02T16:48:44.087Z,96.40
2018-09-02T16:51:16.519Z,96.60
2018-09-02T16:53:48.985Z,96.60
2018-09-02T16:56:21.502Z,96.50
2018-09-02T16:58:54.082Z,96.60
2018-09-02T17:01:27.490Z,96.70
2018-09-02T17:04:03.029Z,96.70
2018-09-02T17:06:35.473Z,96.80
2018-09-02T17:09:09.678Z,96.80
2018-09-02T17:11:42.379Z,96.80
2018-09-02T17:14:14.786Z,96.80
2018-09-02T17:16:47.199Z,96.80
2018-09-02T17:19:25.883Z,96.80
2018-09-02T17:21:58.352Z,96.80
2018-09-02T17:24:31.507Z,97.00
2018-09-02T17:27:04.168Z,96.90
2018-09-02T17:29:36.979Z,96.90
2018-09-02T17:32:12.008Z,97.00
2018-09-02T17:34:44.785Z,96.90
2018-09-02T17:37:17.293Z,96.90
2018-09-02T17:39:49.745Z,96.90
2018-09-02T17:42:24.035Z,97.00
2018-09-02T17:44:56.616Z,97.00
2018-09-02T17:47:29.153Z,97.10
2018-09-02T17:50:01.649Z,97.10
2018-09-02T17:52:34.270Z,97.30
2018-09-02T17:55:06.904Z,97.30
2018-09-02T17:57:39.874Z,97.20
2018-09-02T18:00:18.419Z,97.40
2018-09-02T18:02:50.937Z,97.30
2018-09-02T18:05:23.681Z,97.50
2018-09-02T18:07:56.295Z,97.50
2018-09-02T18:10:28.925Z,97.50
2018-09-02T18:13:01.487Z,97.60
2018-09-02T18:15:33.988Z,97.70
2018-09-02T18:18:06.535Z,97.80
2018-09-02T18:20:39.220Z,97.80
2018-09-02T18:23:11.899Z,97.80
2018-09-02T18:25:44.551Z,97.90
2018-09-02T18:28:20.093Z,98.00
2018-09-02T18:30:52.860Z,98.00
2018-09-02T18:33:25.508Z,98.00
2018-09-02T18:35:58.120Z,98.00
2018-09-02T18:38:30.677Z,98.00
2018-09-02T18:41:03.188Z,98.00
2018-09-02T18:43:36.598Z,98.00
2018-09-02T18:46:09.116Z,98.00
2018-09-02T18:48:41.641Z,98.00
2018-09-02T18:51:14.092Z,98.00
2018-09-02T18:53:46.515Z,98.10
2018-09-02T18:56:19.294Z,98.10
2018-09-02T18:58:52.680Z,98.10
2018-09-02T19:01:26.320Z,98.10
2018-09-02T19:04:00.974Z,98.10
2018-09-02T19:09:17.249Z,98.20
2018-09-02T19:11:50.377Z,98.20
2018-09-02T19:14:26.272Z,98.30
2018-09-02T19:16:59.626Z,98.30
2018-09-02T19:19:33.808Z,98.30
2018-09-02T19:22:09.528Z,98.40
2018-09-02T19:24:43.331Z,98.50
2018-09-02T19:27:17.024Z,98.60
2018-09-02T19:29:50.418Z,98.60
2018-09-02T19:32:23.483Z,98.70
2018-09-02T19:34:59.345Z,98.70
2018-09-02T19:37:32.242Z,98.80
2018-09-02T19:40:06.516Z,98.90
2018-09-02T19:42:42.059Z,99.00
2018-09-02T19:45:17.310Z,99.10
2018-09-02T19:47:51.681Z,99.10
2018-09-02T19:50:24.793Z,99.20
2018-09-02T19:52:57.400Z,99.20
2018-09-02T19:55:33.744Z,99.30
2018-09-02T19:58:06.659Z,99.20
2018-09-02T20:00:39.990Z,99.40
2018-09-02T20:03:13.821Z,99.80
2018-09-02T20:05:48.233Z,99.60
2018-09-02T20:08:21.884Z,99.70
2018-09-02T20:10:55.140Z,99.70
2018-09-02T20:13:28.993Z,99.70
2018-09-02T20:16:02.726Z,99.80
2018-09-02T20:18:39.082Z,99.80
2018-09-02T20:21:12.904Z,99.80
2018-09-02T20:23:45.740Z,99.80
2018-09-02T20:26:19.128Z,99.90
2018-09-02T20:28:54.078Z,99.90
2018-09-02T20:31:28.919Z,99.90
2018-09-02T20:34:03.610Z,99.90
2018-09-02T20:36:37.739Z,99.90
2018-09-02T20:39:10.396Z,99.90
2018-09-02T20:41:43.200Z,99.90
2018-09-02T20:44:15.852Z,99.90
2018-09-02T20:46:49.355Z,99.90
2018-09-02T20:49:23.442Z,99.90
2018-09-02T20:51:56.163Z,99.90
2018-09-02T20:54:30.054Z,99.90
2018-09-02T20:57:03.148Z,99.90
2018-09-02T20:59:36.030Z,99.90
2018-09-02T21:02:09.136Z,99.90
2018-09-02T21:04:42.184Z,99.90
2018-09-02T21:07:15.031Z,99.90
2018-09-02T21:09:49.099Z,99.90
2018-09-02T21:12:22.120Z,99.90
2018-09-02T21:14:54.843Z,99.90
2018-09-02T21:17:27.659Z,99.90
2018-09-02T21:20:02.691Z,99.90
2018-09-02T21:22:35.847Z,99.90
2018-09-02T21:25:08.397Z,99.90
2018-09-02T21:27:41.019Z,99.90
2018-09-02T21:30:14.891Z,99.90
2018-09-02T21:32:47.945Z,99.90
2018-09-02T21:35:22.441Z,99.90
2018-09-02T21:37:55.696Z,99.90
2018-09-02T21:40:28.657Z,99.90
2018-09-02T21:43:02.520Z,99.90
2018-09-02T21:45:35.287Z,99.90
2018-09-02T21:48:09.061Z,99.90
2018-09-02T21:50:43.047Z,99.90
2018-09-02T21:53:29.211Z,99.90
2018-09-02T21:56:01.673Z,99.90
2018-09-02T21:58:34.370Z,99.90
2018-09-02T22:03:41.165Z,99.90
2018-09-02T22:06:14.383Z,99.90
2018-09-02T22:08:47.841Z,99.90
2018-09-02T22:11:20.895Z,99.90
2018-09-02T22:13:53.890Z,99.90
2018-09-02T22:16:26.791Z,99.90
2018-09-02T22:18:59.557Z,99.90
2018-09-02T22:21:32.693Z,99.90
2018-09-02T22:24:05.732Z,99.90
2018-09-02T22:26:38.481Z,99.90
2018-09-02T22:29:10.996Z,99.90
2018-09-02T22:31:44.015Z,99.90
2018-09-02T22:34:16.731Z,99.90
2018-09-02T22:36:50.657Z,99.90
2018-09-02T22:39:23.685Z,99.90
2018-09-02T22:41:57.939Z,99.90
2018-09-02T22:44:30.838Z,99.90
2018-09-02T22:47:04.335Z,99.90
2018-09-02T22:49:36.999Z,99.90
2018-09-02T22:52:09.900Z,99.90
2018-09-02T22:54:42.978Z,99.90
2018-09-02T22:57:17.159Z,99.90
2018-09-02T22:59:50.116Z,99.90
2018-09-02T23:02:22.841Z,99.90
2018-09-02T23:04:55.700Z,99.90
2018-09-02T23:07:29.299Z,99.90
2018-09-02T23:10:02.019Z,99.90
2018-09-02T23:12:35.160Z,99.90
2018-09-02T23:15:07.763Z,99.90
2018-09-02T23:17:40.663Z,99.90
2018-09-02T23:20:15.535Z,99.90
2018-09-02T23:22:49.067Z,99.90
2018-09-02T23:25:23.039Z,99.90
2018-09-02T23:27:57.149Z,99.90
2018-09-02T23:30:30.096Z,99.90
2018-09-02T23:33:05.402Z,99.90
2018-09-02T23:35:39.183Z,99.90
2018-09-02T23:38:12.724Z,99.90
2018-09-02T23:40:46.354Z,99.90
2018-09-02T23:43:19.718Z,99.90
2018-09-02T23:45:53.009Z,99.90
2018-09-02T23:48:26.468Z,99.90
2018-09-02T23:50:59.432Z,99.90
2018-09-02T23:53:35.631Z,99.90
2018-09-02T23:56:09.022Z,99.90
2018-09-02T23:58:42.081Z,99.90
